createdAt,value
2019-02-28T00:00:56.339Z,9.94
2019-02-28T00:03:26.052Z,9.77
2019-02-28T00:05:50.645Z,9.77
2019-02-28T00:08:16.791Z,9.80
2019-02-28T00:10:42.944Z,9.88
2019-02-28T00:13:09.526Z,9.85
2019-02-28T00:15:35.548Z,9.91
2019-02-28T00:18:05.109Z,9.70
2019-02-28T00:20:31.984Z,9.75
2019-02-28T00:22:58.762Z,9.78
2019-02-28T00:25:24.813Z,9.78
2019-02-28T00:27:52.652Z,9.71
2019-02-28T00:30:18.891Z,9.80
2019-02-28T00:32:44.978Z,9.77
2019-02-28T00:35:15.959Z,9.76
2019-02-28T00:37:42.063Z,9.69
2019-02-28T00:40:09.755Z,9.56
2019-02-28T00:42:35.895Z,9.57
2019-02-28T00:45:15.590Z,9.50
2019-02-28T00:47:44.015Z,9.53
2019-02-28T00:50:10.332Z,9.44
2019-02-28T00:52:36.354Z,9.33
2019-02-28T00:55:04.938Z,9.36
2019-02-28T00:57:31.375Z,9.33
2019-02-28T00:59:57.705Z,9.16
2019-02-28T01:02:25.081Z,9.37
2019-02-28T01:04:51.176Z,9.31
2019-02-28T01:07:17.234Z,9.16
2019-02-28T01:09:43.259Z,9.09
2019-02-28T01:12:09.295Z,9.06
2019-02-28T01:14:35.950Z,9.05
2019-02-28T01:17:02.767Z,8.93
2019-02-28T01:19:28.820Z,9.05
2019-02-28T01:21:55.525Z,8.88
2019-02-28T01:24:22.479Z,8.86
2019-02-28T01:26:48.626Z,8.92
2019-02-28T01:29:15.139Z,8.96
2019-02-28T01:31:42.580Z,8.89
2019-02-28T01:34:09.261Z,8.82
2019-02-28T01:36:35.441Z,8.90
2019-02-28T01:39:01.833Z,8.96
2019-02-28T01:41:28.102Z,8.67
2019-02-28T01:43:54.177Z,8.62
2019-02-28T01:46:20.317Z,8.63
2019-02-28T01:48:46.428Z,8.63
2019-02-28T01:51:13.647Z,8.76
2019-02-28T01:53:39.685Z,8.56
2019-02-28T01:56:05.794Z,8.60
2019-02-28T01:58:32.174Z,8.62
2019-02-28T02:00:58.322Z,8.68
2019-02-28T02:03:24.359Z,8.62
2019-02-28T02:05:51.895Z,8.55
2019-02-28T02:08:18.715Z,8.58
2019-02-28T02:10:44.764Z,8.59
2019-02-28T02:13:12.432Z,8.55
2019-02-28T02:15:38.809Z,8.49
2019-02-28T02:18:06.307Z,8.37
2019-02-28T02:20:32.926Z,8.43
2019-02-28T02:22:58.968Z,8.43
2019-02-28T02:25:25.330Z,8.39
2019-02-28T02:27:53.235Z,8.35
2019-02-28T02:30:22.427Z,8.37
2019-02-28T02:32:48.706Z,8.45
2019-02-28T02:35:14.961Z,8.30
2019-02-28T02:37:41.191Z,8.35
2019-02-28T02:40:10.159Z,8.41
2019-02-28T02:42:36.673Z,8.35
2019-02-28T02:45:06.913Z,8.35
2019-02-28T02:47:32.976Z,8.29
2019-02-28T02:49:59.086Z,8.32
2019-02-28T02:52:30.290Z,8.26
2019-02-28T02:54:54.389Z,8.26
2019-02-28T02:57:20.451Z,8.23
2019-02-28T02:59:46.578Z,8.24
2019-02-28T03:02:14.890Z,8.22
2019-02-28T03:04:43.279Z,8.16
2019-02-28T03:07:10.830Z,8.15
2019-02-28T03:09:37.014Z,8.19
2019-02-28T03:12:07.555Z,8.17
2019-02-28T03:14:34.032Z,8.11
2019-02-28T03:17:00.173Z,8.07
2019-02-28T03:19:33.131Z,8.00
2019-02-28T03:21:54.449Z,7.96
2019-02-28T03:24:20.609Z,7.96
2019-02-28T03:26:49.787Z,7.99
2019-02-28T03:29:15.947Z,7.91
2019-02-28T03:31:42.063Z,7.93
2019-02-28T03:34:12.761Z,7.91
2019-02-28T03:36:36.051Z,8.00
2019-02-28T03:39:04.322Z,7.89
2019-02-28T03:41:31.956Z,7.89
2019-02-28T03:43:58.008Z,7.90
2019-02-28T03:46:24.517Z,7.75
2019-02-28T03:48:51.568Z,7.78
2019-02-28T03:51:17.623Z,7.69
2019-02-28T03:53:43.685Z,7.73
2019-02-28T03:56:14.231Z,7.69
2019-02-28T03:58:42.861Z,7.79
2019-02-28T04:01:09.401Z,7.72
2019-02-28T04:03:34.794Z,7.57
2019-02-28T04:06:03.842Z,7.69
2019-02-28T04:08:30.347Z,7.72
2019-02-28T04:10:56.814Z,7.58
2019-02-28T04:13:22.982Z,7.59
2019-02-28T04:16:07.494Z,7.55
2019-02-28T04:18:17.291Z,7.52
2019-02-28T04:20:43.354Z,7.49
2019-02-28T04:23:09.479Z,7.48
2019-02-28T04:25:35.521Z,7.49
2019-02-28T04:28:01.637Z,7.47
2019-02-28T04:30:29.604Z,7.47
2019-02-28T04:33:01.121Z,7.43
2019-02-28T04:35:25.302Z,7.40
2019-02-28T04:37:52.052Z,7.40
2019-02-28T04:40:18.345Z,7.50
2019-02-28T04:42:44.809Z,7.52
2019-02-28T04:45:12.292Z,7.32
2019-02-28T04:47:40.460Z,7.33
2019-02-28T04:50:08.467Z,7.19
2019-02-28T04:52:35.132Z,7.24
2019-02-28T04:55:02.834Z,7.04
2019-02-28T04:57:29.621Z,7.08
2019-02-28T04:59:56.865Z,7.00
2019-02-28T05:02:23.328Z,7.03
2019-02-28T05:04:49.642Z,6.93
2019-02-28T05:07:15.990Z,6.94
2019-02-28T05:09:45.306Z,6.96
2019-02-28T05:12:10.749Z,6.90
2019-02-28T05:14:38.318Z,6.83
2019-02-28T05:17:04.606Z,6.72
2019-02-28T05:19:32.276Z,6.76
2019-02-28T05:21:59.327Z,6.71
2019-02-28T05:24:25.751Z,6.78
2019-02-28T05:26:52.191Z,6.69
2019-02-28T05:29:20.810Z,6.67
2019-02-28T05:31:47.103Z,6.59
2019-02-28T05:34:16.011Z,6.66
2019-02-28T05:36:41.702Z,6.67
2019-02-28T05:39:08.481Z,6.56
2019-02-28T05:41:36.237Z,6.50
2019-02-28T05:44:03.321Z,6.64
2019-02-28T05:46:30.851Z,6.56
2019-02-28T05:48:57.134Z,6.54
2019-02-28T05:51:27.372Z,6.64
2019-02-28T05:53:53.802Z,6.60
2019-02-28T05:56:21.303Z,6.63
2019-02-28T05:58:49.313Z,6.56
2019-02-28T06:01:15.513Z,6.58
2019-02-28T06:03:42.228Z,6.55
2019-02-28T06:06:09.037Z,6.50
2019-02-28T06:08:39.065Z,6.59
2019-02-28T06:11:05.193Z,6.54
2019-02-28T06:13:31.709Z,6.54
2019-02-28T06:15:57.878Z,6.53
2019-02-28T06:18:27.080Z,6.52
2019-02-28T06:20:53.984Z,6.57
2019-02-28T06:23:20.700Z,6.53
2019-02-28T06:25:46.995Z,6.45
2019-02-28T06:28:13.301Z,6.41
2019-02-28T06:30:41.462Z,6.38
2019-02-28T06:33:07.932Z,6.40
2019-02-28T06:35:34.054Z,6.42
2019-02-28T06:38:00.517Z,6.40
2019-02-28T06:40:26.630Z,6.49
2019-02-28T06:42:52.680Z,6.37
2019-02-28T06:45:19.142Z,6.45
2019-02-28T06:47:48.616Z,6.41
2019-02-28T06:50:20.610Z,6.40
2019-02-28T06:52:46.855Z,6.35
2019-02-28T06:55:17.726Z,6.29
2019-02-28T06:57:43.868Z,6.27
2019-02-28T07:00:14.679Z,6.25
2019-02-28T07:02:40.713Z,6.19
2019-02-28T07:05:09.063Z,6.25
2019-02-28T07:07:35.205Z,6.07
2019-02-28T07:10:01.899Z,6.08
2019-02-28T07:12:29.775Z,6.09
2019-02-28T07:14:56.328Z,6.02
2019-02-28T07:17:22.733Z,5.98
2019-02-28T07:19:48.818Z,6.00
2019-02-28T07:22:19.144Z,5.97
2019-02-28T07:24:42.944Z,5.99
2019-02-28T07:27:08.997Z,5.84
2019-02-28T07:29:36.254Z,5.89
2019-02-28T07:32:02.362Z,5.81
2019-02-28T07:34:28.682Z,5.81
2019-02-28T07:36:55.011Z,5.69
2019-02-28T07:39:21.073Z,5.63
2019-02-28T07:41:47.286Z,5.64
2019-02-28T07:44:13.728Z,5.66
2019-02-28T07:46:42.417Z,5.61
2019-02-28T07:49:07.814Z,5.62
2019-02-28T07:51:35.249Z,5.66
2019-02-28T07:54:01.641Z,5.61
2019-02-28T07:56:28.038Z,5.68
2019-02-28T07:58:54.197Z,5.67
2019-02-28T08:01:20.227Z,5.64
2019-02-28T08:03:46.375Z,5.57
2019-02-28T08:06:12.608Z,5.54
2019-02-28T08:08:38.958Z,5.56
2019-02-28T08:11:05.108Z,5.62
2019-02-28T08:13:34.577Z,5.52
2019-02-28T08:16:01.122Z,5.61
2019-02-28T08:18:27.202Z,5.65
2019-02-28T08:20:53.268Z,5.60
2019-02-28T08:23:19.378Z,5.70
2019-02-28T08:25:45.516Z,5.74
2019-02-28T08:28:11.690Z,5.77
2019-02-28T08:30:38.012Z,5.78
2019-02-28T08:33:04.249Z,5.78
2019-02-28T08:35:34.590Z,5.93
2019-02-28T08:38:01.594Z,5.97
2019-02-28T08:40:29.776Z,5.93
2019-02-28T08:42:58.021Z,5.84
2019-02-28T08:45:24.205Z,5.85
2019-02-28T08:47:55.228Z,5.85
2019-02-28T08:50:23.552Z,5.91
2019-02-28T08:52:53.791Z,5.90
2019-02-28T08:55:28.219Z,5.97
2019-02-28T08:57:54.452Z,5.99
2019-02-28T09:00:17.912Z,5.95
2019-02-28T09:02:46.151Z,5.97
2019-02-28T09:05:13.385Z,5.93
2019-02-28T09:07:40.573Z,6.02
2019-02-28T09:10:25.421Z,6.05
2019-02-28T09:12:51.939Z,6.00
2019-02-28T09:15:18.513Z,6.13
2019-02-28T09:17:45.578Z,6.09
2019-02-28T09:20:15.514Z,5.97
2019-02-28T09:22:42.439Z,5.99
2019-02-28T09:25:21.155Z,6.07
2019-02-28T09:27:45.341Z,6.10
2019-02-28T09:30:36.941Z,5.95
2019-02-28T09:33:04.635Z,6.00
2019-02-28T09:35:30.721Z,6.02
2019-02-28T09:37:56.757Z,6.02
2019-02-28T09:40:25.776Z,6.11
2019-02-28T09:42:51.132Z,6.17
2019-02-28T09:45:20.928Z,6.23
2019-02-28T09:47:46.987Z,6.24
2019-02-28T09:50:22.472Z,6.28
2019-02-28T09:52:49.042Z,6.20
2019-02-28T09:55:15.626Z,6.25
2019-02-28T09:57:41.928Z,6.30
2019-02-28T10:00:21.557Z,6.30
2019-02-28T10:02:47.670Z,6.37
2019-02-28T10:05:13.844Z,6.39
2019-02-28T10:07:41.215Z,6.36
2019-02-28T10:10:20.994Z,6.41
2019-02-28T10:12:49.225Z,6.43
2019-02-28T10:15:20.598Z,6.52
2019-02-28T10:17:47.232Z,6.57
2019-02-28T10:20:27.179Z,6.45
2019-02-28T10:22:53.679Z,6.42
2019-02-28T10:25:19.831Z,6.44
2019-02-28T10:27:47.571Z,6.46
2019-02-28T10:30:16.799Z,6.41
2019-02-28T10:32:44.062Z,6.42
2019-02-28T10:35:10.614Z,6.41
2019-02-28T10:37:36.651Z,6.44
2019-02-28T10:40:09.628Z,6.52
2019-02-28T10:42:36.952Z,6.48
2019-02-28T10:45:07.181Z,6.44
2019-02-28T10:47:33.416Z,6.49
2019-02-28T10:50:01.529Z,6.51
2019-02-28T10:52:30.656Z,6.52
2019-02-28T10:54:57.056Z,6.59
2019-02-28T10:57:24.197Z,6.57
2019-02-28T10:59:50.921Z,6.67
2019-02-28T11:02:19.798Z,6.74
2019-02-28T11:04:46.874Z,6.76
2019-02-28T11:07:14.335Z,6.81
2019-02-28T11:09:40.632Z,6.88
2019-02-28T11:12:07.011Z,6.95
2019-02-28T11:14:35.521Z,6.88
2019-02-28T11:17:03.534Z,7.00
2019-02-28T11:19:29.779Z,6.99
2019-02-28T11:21:57.068Z,7.04
2019-02-28T11:24:45.015Z,6.87
2019-02-28T11:27:11.821Z,6.99
2019-02-28T11:29:37.943Z,7.05
2019-02-28T11:32:04.220Z,6.90
2019-02-28T11:34:30.303Z,6.88
2019-02-28T11:36:56.395Z,7.04
2019-02-28T11:39:22.588Z,7.01
2019-02-28T11:41:49.268Z,7.09
2019-02-28T11:44:16.693Z,7.04
2019-02-28T11:46:44.036Z,7.01
2019-02-28T11:49:10.177Z,6.87
2019-02-28T11:51:36.201Z,6.94
2019-02-28T11:54:02.280Z,6.97
2019-02-28T11:56:29.440Z,6.99
2019-02-28T11:58:56.001Z,7.04
2019-02-28T12:01:22.035Z,6.95
2019-02-28T12:03:48.159Z,7.08
2019-02-28T12:06:14.316Z,6.96
2019-02-28T12:08:54.386Z,7.03
2019-02-28T12:11:20.803Z,6.91
2019-02-28T12:13:46.888Z,7.02
2019-02-28T12:16:13.033Z,7.01
2019-02-28T12:18:40.087Z,7.08
2019-02-28T12:21:07.215Z,7.13
2019-02-28T12:23:33.372Z,7.15
2019-02-28T12:26:00.318Z,7.20
2019-02-28T12:28:26.938Z,7.14
2019-02-28T12:30:53.220Z,7.16
2019-02-28T12:33:23.012Z,7.07
2019-02-28T12:35:47.654Z,7.14
2019-02-28T12:38:13.780Z,7.15
2019-02-28T12:40:42.633Z,6.98
2019-02-28T12:43:13.218Z,7.04
2019-02-28T12:45:46.975Z,7.07
2019-02-28T12:48:13.749Z,7.11
2019-02-28T12:50:40.662Z,6.99
2019-02-28T12:53:06.893Z,7.00
2019-02-28T12:55:35.641Z,7.01
2019-02-28T12:58:01.387Z,7.02
2019-02-28T13:00:40.974Z,6.96
2019-02-28T13:03:09.389Z,6.98
2019-02-28T13:05:35.511Z,7.04
2019-02-28T13:08:01.814Z,7.08
2019-02-28T13:10:29.285Z,6.97
2019-02-28T13:13:05.630Z,7.00
2019-02-28T13:15:25.067Z,6.99
2019-02-28T13:17:51.838Z,6.97
2019-02-28T13:20:32.108Z,6.87
2019-02-28T13:23:01.130Z,6.76
2019-02-28T13:25:27.441Z,6.80
2019-02-28T13:27:53.776Z,6.86
2019-02-28T13:30:22.032Z,7.01
2019-02-28T13:32:49.601Z,6.89
2019-02-28T13:35:24.969Z,6.95
2019-02-28T13:37:53.147Z,6.88
2019-02-28T13:40:19.250Z,6.87
2019-02-28T13:42:45.499Z,6.83
2019-02-28T13:45:23.296Z,6.73
2019-02-28T13:47:48.479Z,6.72
2019-02-28T13:50:25.697Z,6.85
2019-02-28T13:52:53.250Z,6.76
2019-02-28T13:55:20.173Z,6.71
2019-02-28T13:57:47.061Z,6.69
2019-02-28T14:00:18.565Z,6.63
2019-02-28T14:02:46.930Z,6.83
2019-02-28T14:05:13.273Z,6.86
2019-02-28T14:07:39.395Z,6.90
2019-02-28T14:10:09.135Z,6.79
2019-02-28T14:12:35.719Z,6.98
2019-02-28T14:15:01.877Z,7.03
2019-02-28T14:17:28.155Z,7.02
2019-02-28T14:19:54.262Z,6.96
2019-02-28T14:22:20.447Z,7.11
2019-02-28T14:24:46.573Z,7.11
2019-02-28T14:27:13.118Z,7.08
2019-02-28T14:29:39.350Z,7.13
2019-02-28T14:32:07.356Z,7.22
2019-02-28T14:34:33.755Z,7.31
2019-02-28T14:36:59.802Z,7.03
2019-02-28T14:39:26.178Z,7.23
2019-02-28T14:41:52.267Z,7.23
2019-02-28T14:44:20.314Z,7.19
2019-02-28T14:46:46.540Z,7.12
2019-02-28T14:49:14.906Z,7.19
2019-02-28T14:51:41.042Z,7.23
2019-02-28T14:54:14.507Z,7.19
2019-02-28T14:56:43.171Z,7.16
2019-02-28T14:59:11.914Z,7.20
2019-02-28T15:01:38.032Z,7.23
2019-02-28T15:04:12.959Z,7.20
2019-02-28T15:06:40.033Z,7.26
2019-02-28T15:09:12.973Z,7.45
2019-02-28T15:11:39.338Z,7.45
2019-02-28T15:14:05.672Z,7.56
2019-02-28T15:16:53.369Z,7.46
2019-02-28T15:19:21.366Z,7.50
2019-02-28T15:21:48.718Z,7.70
2019-02-28T15:24:14.851Z,7.73
2019-02-28T15:26:40.969Z,7.92
2019-02-28T15:29:07.207Z,7.83
2019-02-28T15:31:33.479Z,7.73
2019-02-28T15:34:02.235Z,7.57
2019-02-28T15:36:29.751Z,7.64
2019-02-28T15:38:55.909Z,7.68
2019-02-28T15:41:21.961Z,7.91
2019-02-28T15:43:50.304Z,7.89
2019-02-28T15:46:16.018Z,7.85
2019-02-28T15:48:42.367Z,8.02
2019-02-28T15:51:10.503Z,7.90
2019-02-28T15:53:36.789Z,7.72
2019-02-28T15:56:12.727Z,7.85
2019-02-28T15:58:31.341Z,7.74
2019-02-28T16:00:57.822Z,7.75
2019-02-28T16:03:24.026Z,7.65
2019-02-28T16:05:50.459Z,7.56
2019-02-28T16:08:17.711Z,7.37
2019-02-28T16:10:53.127Z,7.53
2019-02-28T16:13:16.119Z,7.63
2019-02-28T16:15:43.294Z,7.67
2019-02-28T16:18:12.048Z,7.55
2019-02-28T16:20:39.203Z,7.54
2019-02-28T16:23:07.173Z,7.74
2019-02-28T16:25:35.134Z,7.65
2019-02-28T16:28:04.464Z,7.67
2019-02-28T16:30:32.143Z,7.85
2019-02-28T16:32:59.366Z,7.91
2019-02-28T16:35:28.945Z,7.69
2019-02-28T16:37:58.466Z,7.85
2019-02-28T16:40:27.205Z,7.78
2019-02-28T16:42:54.054Z,7.94
2019-02-28T16:45:32.734Z,7.85
2019-02-28T16:48:02.897Z,7.85
2019-02-28T16:50:28.802Z,8.03
2019-02-28T16:52:55.002Z,7.81
2019-02-28T16:55:21.154Z,7.82
2019-02-28T16:57:48.030Z,7.47
2019-02-28T17:00:16.127Z,7.40
2019-02-28T17:02:42.564Z,7.22
2019-02-28T17:05:09.618Z,7.09
2019-02-28T17:07:35.906Z,7.11
2019-02-28T17:10:07.287Z,7.12
2019-02-28T17:12:35.328Z,7.10
2019-02-28T17:15:01.606Z,7.11
2019-02-28T17:17:29.689Z,7.01
2019-02-28T17:19:55.906Z,7.05
2019-02-28T17:22:27.011Z,7.11
2019-02-28T17:24:52.859Z,7.12
2019-02-28T17:27:26.459Z,6.98
2019-02-28T17:29:57.636Z,6.96
2019-02-28T17:32:23.033Z,6.97
2019-02-28T17:34:49.184Z,6.96
2019-02-28T17:37:16.315Z,6.80
2019-02-28T17:39:42.470Z,6.84
2019-02-28T17:42:12.132Z,6.76
2019-02-28T17:44:43.745Z,6.75
2019-02-28T17:47:33.101Z,6.59
2019-02-28T17:50:19.686Z,6.66
2019-02-28T17:53:10.275Z,6.68
2019-02-28T17:55:51.885Z,6.59
2019-02-28T17:58:36.657Z,6.49
2019-02-28T18:01:21.774Z,6.46
2019-02-28T18:04:04.288Z,6.42
2019-02-28T18:06:53.408Z,6.24
2019-02-28T18:09:53.269Z,6.22
2019-02-28T18:12:29.502Z,6.07
2019-02-28T18:15:14.834Z,6.21
2019-02-28T18:18:18.016Z,6.39
2019-02-28T18:20:51.122Z,6.43
2019-02-28T18:23:30.447Z,6.45
2019-02-28T18:26:17.033Z,6.37
2019-02-28T18:28:50.096Z,6.34
2019-02-28T18:31:19.182Z,6.36
2019-02-28T18:33:50.086Z,6.30
2019-02-28T18:36:19.066Z,6.29
2019-02-28T18:38:45.094Z,6.39
2019-02-28T18:41:11.523Z,6.49
2019-02-28T18:43:38.155Z,6.36
2019-02-28T18:46:04.785Z,6.40
2019-02-28T18:48:30.943Z,6.45
2019-02-28T18:50:57.245Z,6.54
2019-02-28T18:53:23.382Z,6.37
2019-02-28T18:55:49.428Z,6.43
2019-02-28T18:58:15.474Z,6.39
2019-02-28T19:00:41.639Z,6.37
2019-02-28T19:03:08.210Z,6.42
2019-02-28T19:05:34.386Z,6.44
2019-02-28T19:08:00.407Z,6.57
2019-02-28T19:10:26.408Z,6.58
2019-02-28T19:12:52.561Z,6.59
2019-02-28T19:15:18.577Z,6.56
2019-02-28T19:17:44.633Z,6.55
2019-02-28T19:20:10.771Z,6.69
2019-02-28T19:22:36.781Z,6.74
2019-02-28T19:25:04.430Z,6.79
2019-02-28T19:27:30.572Z,6.78
2019-02-28T19:29:56.683Z,6.87
2019-02-28T19:32:22.783Z,6.83
2019-02-28T19:34:49.313Z,6.63
2019-02-28T19:37:15.385Z,6.60
2019-02-28T19:39:41.401Z,6.79
2019-02-28T19:42:09.291Z,7.07
2019-02-28T19:44:35.448Z,7.22
2019-02-28T19:47:01.561Z,7.15
2019-02-28T19:49:27.665Z,7.10
2019-02-28T19:51:53.772Z,7.15
2019-02-28T19:54:19.826Z,7.19
2019-02-28T19:56:45.843Z,7.23
2019-02-28T19:59:12.980Z,7.22
2019-02-28T20:01:39.270Z,7.18
2019-02-28T20:04:06.383Z,7.13
2019-02-28T20:06:32.728Z,7.15
2019-02-28T20:08:58.830Z,7.13
2019-02-28T20:11:24.896Z,7.08
2019-02-28T20:13:50.949Z,7.14
2019-02-28T20:16:17.293Z,7.18
2019-02-28T20:18:43.555Z,7.19
2019-02-28T20:21:09.903Z,7.09
2019-02-28T20:23:36.081Z,7.00
2019-02-28T20:26:02.563Z,7.05
2019-02-28T20:28:28.630Z,7.09
2019-02-28T20:30:54.835Z,7.03
2019-02-28T20:33:22.814Z,6.94
2019-02-28T20:35:48.960Z,6.95
2019-02-28T20:38:14.990Z,6.83
2019-02-28T20:40:41.087Z,6.85
2019-02-28T20:43:07.452Z,6.70
2019-02-28T20:45:33.851Z,6.71
2019-02-28T20:47:59.911Z,6.66
2019-02-28T20:50:35.893Z,6.83
2019-02-28T20:53:02.074Z,6.75
2019-02-28T20:55:28.229Z,6.69
2019-02-28T20:57:54.277Z,6.69
2019-02-28T21:00:22.234Z,6.64
2019-02-28T21:02:48.248Z,6.65
2019-02-28T21:05:14.506Z,6.45
2019-02-28T21:07:41.009Z,6.44
2019-02-28T21:10:08.440Z,6.39
2019-02-28T21:12:34.689Z,6.42
2019-02-28T21:15:01.600Z,6.28
2019-02-28T21:17:29.596Z,6.26
2019-02-28T21:19:55.905Z,6.25
2019-02-28T21:22:22.040Z,6.26
2019-02-28T21:24:48.076Z,6.23
2019-02-28T21:27:14.199Z,6.16
2019-02-28T21:29:40.314Z,5.99
2019-02-28T21:32:06.423Z,5.90
2019-02-28T21:34:32.466Z,6.01
2019-02-28T21:36:58.514Z,5.93
2019-02-28T21:39:24.526Z,6.00
2019-02-28T21:41:50.640Z,6.07
2019-02-28T21:44:16.729Z,5.96
2019-02-28T21:46:43.008Z,5.92
2019-02-28T21:49:09.221Z,5.91
2019-02-28T21:51:35.347Z,5.93
2019-02-28T21:54:01.502Z,5.89
2019-02-28T21:56:27.602Z,5.93
2019-02-28T21:58:53.638Z,5.89
2019-02-28T22:01:20.119Z,5.96
2019-02-28T22:03:48.689Z,6.06
2019-02-28T22:06:14.735Z,5.96
2019-02-28T22:08:40.878Z,5.89
2019-02-28T22:11:06.949Z,5.85
2019-02-28T22:13:33.090Z,5.96
2019-02-28T22:16:00.880Z,6.60
2019-02-28T22:18:27.054Z,6.53
2019-02-28T22:20:53.550Z,6.51
2019-02-28T22:23:19.729Z,6.53
2019-02-28T22:25:45.931Z,6.28
2019-02-28T22:28:11.972Z,6.11
2019-02-28T22:30:42.891Z,6.00
2019-02-28T22:33:16.863Z,6.01
2019-02-28T22:35:49.308Z,5.92
2019-02-28T22:38:15.664Z,5.74
2019-02-28T22:40:41.818Z,5.74
2019-02-28T22:43:09.776Z,5.74
2019-02-28T22:45:36.107Z,5.75
2019-02-28T22:48:02.825Z,5.70
2019-02-28T22:50:28.977Z,5.72
2019-02-28T22:52:56.415Z,6.48
2019-02-28T22:55:22.787Z,6.39
2019-02-28T22:57:48.933Z,5.98
2019-02-28T23:00:26.560Z,5.74
2019-02-28T23:02:52.933Z,5.65
2019-02-28T23:05:18.986Z,5.59
2019-02-28T23:07:46.075Z,5.55
2019-02-28T23:10:12.111Z,5.47
2019-02-28T23:12:38.219Z,5.36
2019-02-28T23:15:05.308Z,5.37
2019-02-28T23:17:31.457Z,5.35
2019-02-28T23:19:57.813Z,5.38
2019-02-28T23:22:30.752Z,5.34
2019-02-28T23:24:56.822Z,5.39
2019-02-28T23:27:22.939Z,5.31
2019-02-28T23:29:58.532Z,5.25
2019-02-28T23:32:31.281Z,5.24
2019-02-28T23:34:57.338Z,5.26
2019-02-28T23:37:23.350Z,5.27
2019-02-28T23:39:49.431Z,5.18
2019-02-28T23:42:17.426Z,5.13
2019-02-28T23:44:43.433Z,5.10
2019-02-28T23:47:09.573Z,5.12
2019-02-28T23:49:35.582Z,5.21
2019-02-28T23:52:01.625Z,5.22
2019-02-28T23:54:27.749Z,5.11
2019-02-28T23:56:53.987Z,5.13
2019-02-28T23:59:20.073Z,5.17
